Time;durP1;ratioP1;P1;durP2;ratioP2;P2;SDS_P1;SDS_P2;PMS_P1;PMS_P2;Temp;Humidity;BMP_temperature;BMP_pressure;BME280_temperature;BME280_humidity;BME280_pressure;Samples;Min_cycle;Max_cycle;Signal;HPM_P1;HPM_P2
2022/11/07 00:01:50;;;;;;;7.80;1.83;;;13.40;99.90;;;;;;5044479;28;20049;-83
2022/11/07 00:04:17;;;;;;;5.07;1.85;;;13.40;99.90;;;;;;5042781;28;20048;-82
2022/11/07 00:06:45;;;;;;;6.18;1.98;;;13.40;99.90;;;;;;5040055;28;20048;-83
2022/11/07 00:09:12;;;;;;;5.80;1.60;;;13.40;99.90;;;;;;5044281;28;20041;-82
2022/11/07 00:11:39;;;;;;;7.20;1.90;;;13.40;99.90;;;;;;5026153;28;20161;-82
2022/11/07 00:14:06;;;;;;;5.60;1.73;;;13.40;99.90;;;;;;5045323;28;20050;-83
2022/11/07 00:16:35;;;;;;;5.07;2.15;;;13.40;99.90;;;;;;5041402;28;20044;-83
2022/11/07 00:19:05;;;;;;;5.75;2.00;;;13.40;99.90;;;;;;5044203;28;20364;-83
2022/11/07 00:21:32;;;;;;;4.95;1.90;;;13.40;99.90;;;;;;5037594;28;20037;-83
2022/11/07 00:24:00;;;;;;;6.70;2.00;;;13.40;99.90;;;;;;5045536;28;20047;-82
2022/11/07 00:26:27;;;;;;;5.07;1.75;;;13.40;99.90;;;;;;5038069;28;20036;-83
2022/11/07 00:28:55;;;;;;;7.20;1.70;;;13.30;99.90;;;;;;5026524;28;20406;-83
2022/11/07 00:31:22;;;;;;;6.20;2.30;;;13.30;99.90;;;;;;5044149;28;20059;-82
2022/11/07 00:33:49;;;;;;;9.75;1.92;;;13.30;99.90;;;;;;5025475;28;20425;-83
2022/11/07 00:36:20;;;;;;;6.22;2.00;;;13.30;99.90;;;;;;5040890;28;20401;-83
2022/11/07 00:38:47;;;;;;;8.07;2.40;;;13.30;99.90;;;;;;5043164;28;20044;-83
2022/11/07 00:41:15;;;;;;;6.93;2.22;;;13.30;99.90;;;;;;5040644;28;20521;-83
2022/11/07 00:43:42;;;;;;;5.85;1.90;;;13.30;99.90;;;;;;5022335;28;20049;-83
2022/11/07 00:46:11;;;;;;;5.07;1.73;;;13.30;99.90;;;;;;5029171;28;20135;-83
2022/11/07 00:48:38;;;;;;;5.75;1.73;;;13.40;99.90;;;;;;5043387;28;20059;-83
2022/11/07 00:51:06;;;;;;;7.03;1.98;;;13.40;99.90;;;;;;5045141;28;20037;-83
2022/11/07 00:53:34;;;;;;;3.90;1.60;;;13.40;99.90;;;;;;5044558;28;20103;-83
2022/11/07 00:56:02;;;;;;;5.18;1.83;;;13.40;99.90;;;;;;5028255;28;20429;-83
2022/11/07 00:58:30;;;;;;;5.13;1.90;;;13.50;99.90;;;;;;5040717;28;20041;-83
2022/11/07 01:00:57;;;;;;;5.22;1.67;;;13.50;99.90;;;;;;5026928;28;20055;-83
2022/11/07 01:06:09;;;;;;;6.18;1.58;;;13.40;99.90;;;;;;5024359;28;20049;-83
2022/11/07 01:08:36;;;;;;;6.03;1.63;;;13.40;99.90;;;;;;5041582;28;20046;-82
2022/11/07 01:11:05;;;;;;;5.68;1.50;;;13.40;99.90;;;;;;5041055;28;20348;-83
2022/11/07 01:13:34;;;;;;;5.72;1.70;;;13.50;99.90;;;;;;5040466;28;20037;-83
2022/11/07 01:16:01;;;;;;;5.32;1.73;;;13.50;99.90;;;;;;5044514;28;20128;-83
2022/11/07 01:18:28;;;;;;;4.22;1.50;;;13.50;99.90;;;;;;5045171;28;20041;-83
2022/11/07 01:20:55;;;;;;;4.68;1.60;;;13.50;99.90;;;;;;5040386;28;20045;-82
2022/11/07 01:23:22;;;;;;;5.38;1.48;;;13.40;99.90;;;;;;5020896;28;20048;-83
2022/11/07 01:25:49;;;;;;;5.07;1.55;;;13.40;99.90;;;;;;5039685;28;20756;-83
2022/11/07 01:28:16;;;;;;;4.60;1.60;;;13.40;99.90;;;;;;5026413;28;20055;-83
2022/11/07 01:30:45;;;;;;;3.95;1.55;;;13.40;99.90;;;;;;5038539;28;20801;-83
2022/11/07 01:33:12;;;;;;;3.70;1.38;;;13.40;99.90;;;;;;5043803;28;20045;-83
2022/11/07 01:35:40;;;;;;;4.93;1.50;;;13.40;99.90;;;;;;5035655;28;20055;-83
2022/11/07 01:38:07;;;;;;;4.28;1.40;;;13.40;99.90;;;;;;5043958;28;20041;-82
2022/11/07 01:41:20;;;;;;;5.72;1.60;;;13.30;99.90;;;;;;5025501;28;20481;-83
2022/11/07 01:43:21;;;;;;;4.93;1.58;;;13.30;99.90;;;;;;5034612;28;20406;-83
2022/11/07 01:45:49;;;;;;;5.05;1.42;;;13.50;99.90;;;;;;5039030;28;20037;-83
2022/11/07 01:48:16;;;;;;;4.43;1.77;;;13.30;99.90;;;;;;5027894;28;20578;-82
2022/11/07 01:50:43;;;;;;;3.70;1.33;;;13.30;99.90;;;;;;5026783;28;20061;-83
2022/11/07 01:53:10;;;;;;;3.47;1.60;;;13.20;99.90;;;;;;5040232;28;20489;-83
2022/11/07 01:55:37;;;;;;;5.68;1.70;;;13.20;99.90;;;;;;5042617;28;20045;-83
2022/11/07 01:58:05;;;;;;;4.22;1.65;;;13.10;99.90;;;;;;5026628;28;20049;-83
2022/11/07 02:00:34;;;;;;;4.30;1.52;;;13.10;99.90;;;;;;5042956;28;20037;-83
2022/11/07 02:03:06;;;;;;;4.55;1.42;;;13.10;99.90;;;;;;5042716;28;21932;-82
2022/11/07 02:05:35;;;;;;;5.97;1.60;;;13.10;99.90;;;;;;5025974;28;20067;-83
2022/11/07 02:08:06;;;;;;;5.20;1.55;;;13.10;99.90;;;;;;5037218;28;20115;-83
2022/11/07 02:10:33;;;;;;;;;;;13.10;99.90;;;;;;5040861;28;20045;-83
2022/11/07 02:13:00;;;;;;;4.35;1.48;;;13.10;99.90;;;;;;5040832;28;19925;-83
2022/11/07 02:15:27;;;;;;;5.40;1.73;;;13.10;99.90;;;;;;5039398;28;20582;-83
2022/11/07 02:17:55;;;;;;;5.43;1.88;;;13.10;99.90;;;;;;5039993;28;20053;-83
2022/11/07 02:20:23;;;;;;;4.35;1.70;;;13.10;99.90;;;;;;5038531;28;20040;-83
2022/11/07 02:22:53;;;;;;;5.65;1.63;;;13.20;99.90;;;;;;5040908;28;20514;-83
2022/11/07 02:25:22;;;;;;;5.95;1.48;;;13.10;99.90;;;;;;5039868;28;20071;-83
2022/11/07 02:27:52;;;;;;;5.60;1.58;;;13.20;99.90;;;;;;5035696;28;20037;-83
2022/11/07 02:30:24;;;;;;;8.35;1.75;;;13.20;99.90;;;;;;5038042;28;20080;-83
2022/11/07 02:32:51;;;;;;;5.82;1.70;;;13.10;99.90;;;;;;5038887;28;20059;-83
2022/11/07 02:35:35;;;;;;;2.92;1.20;;;13.10;99.90;;;;;;5040182;28;20706;-83
2022/11/07 02:38:03;;;;;;;8.75;2.00;;;13.10;99.90;;;;;;5039968;28;20065;-83
2022/11/07 02:40:32;;;;;;;6.43;1.90;;;13.10;99.90;;;;;;5040947;28;20045;-83
2022/11/07 02:42:59;;;;;;;7.90;1.83;;;13.10;99.90;;;;;;5041374;28;20116;-83
2022/11/07 02:45:29;;;;;;;9.93;1.77;;;13.10;99.90;;;;;;5043375;28;20055;-83
2022/11/07 02:47:56;;;;;;;4.30;1.60;;;13.10;99.90;;;;;;5037928;28;20572;-83
2022/11/07 02:50:23;;;;;;;7.30;1.65;;;13.10;99.90;;;;;;5060609;22;20067;-85
2022/11/07 02:52:49;;;;;;;4.65;1.48;;;13.10;99.90;;;;;;5062931;28;20041;-84
2022/11/07 02:55:18;;;;;;;5.53;1.65;;;13.10;99.90;;;;;;5060618;28;20051;-84
2022/11/07 02:57:46;;;;;;;6.25;1.58;;;13.10;99.90;;;;;;5064521;28;20119;-84
2022/11/07 03:00:14;;;;;;;7.20;2.10;;;13.10;99.90;;;;;;5060576;28;20067;-84
2022/11/07 03:02:45;;;;;;;4.60;1.50;;;13.10;99.90;;;;;;5063420;28;20041;-84
2022/11/07 03:05:13;;;;;;;5.55;1.55;;;13.10;99.90;;;;;;5062790;28;20048;-84
2022/11/07 03:07:41;;;;;;;6.47;1.60;;;13.10;99.90;;;;;;5063821;28;20484;-84
2022/11/07 03:10:09;;;;;;;5.65;1.52;;;13.10;99.90;;;;;;5063898;28;20041;-84
2022/11/07 03:12:36;;;;;;;5.63;1.38;;;13.10;99.90;;;;;;5067131;28;20059;-84
2022/11/07 03:15:06;;;;;;;7.05;1.73;;;13.10;99.90;;;;;;5065744;28;20045;-84
2022/11/07 03:17:34;;;;;;;7.57;2.00;;;13.10;99.90;;;;;;5067561;28;20044;-84
2022/11/07 03:20:01;;;;;;;4.18;1.33;;;13.10;99.90;;;;;;5066865;28;20486;-84
2022/11/07 03:22:28;;;;;;;6.90;1.55;;;13.10;99.90;;;;;;5067691;28;20052;-84
2022/11/07 03:24:55;;;;;;;4.45;1.63;;;13.10;99.90;;;;;;5066048;28;20047;-84
2022/11/07 03:27:22;;;;;;;8.23;1.80;;;13.10;99.90;;;;;;5067121;28;20047;-84
2022/11/07 03:29:51;;;;;;;8.13;1.95;;;13.20;99.90;;;;;;5066606;28;20532;-84
2022/11/07 03:32:19;;;;;;;5.45;1.88;;;13.20;99.90;;;;;;5066979;28;20054;-84
2022/11/07 03:34:46;;;;;;;6.80;1.98;;;13.20;99.90;;;;;;5064460;28;20116;-84
2022/11/07 03:37:13;;;;;;;7.70;2.25;;;13.20;99.90;;;;;;5066510;28;20052;-84
2022/11/07 03:39:40;;;;;;;5.85;2.05;;;13.20;99.90;;;;;;5066491;28;20405;-85
2022/11/07 03:42:07;;;;;;;5.15;1.92;;;13.10;99.90;;;;;;5067017;28;20050;-84
2022/11/07 03:44:37;;;;;;;8.55;2.00;;;13.20;99.90;;;;;;5065192;28;20523;-85
2022/11/07 03:47:04;;;;;;;6.13;1.63;;;13.10;99.90;;;;;;5066726;28;20046;-84
2022/11/07 03:49:32;;;;;;;8.77;2.08;;;13.10;99.90;;;;;;5066522;28;20805;-84
2022/11/07 03:51:59;;;;;;;8.48;1.98;;;13.10;99.90;;;;;;5066748;28;20050;-84
2022/11/07 03:54:26;;;;;;;7.07;1.98;;;13.00;99.90;;;;;;5065219;28;20049;-84
2022/11/07 03:56:52;;;;;;;6.63;1.85;;;13.00;99.90;;;;;;5066251;28;20036;-84
2022/11/07 03:59:19;;;;;;;5.78;1.73;;;13.10;99.90;;;;;;5067005;28;20519;-84
2022/11/07 04:01:46;;;;;;;5.40;1.85;;;13.00;99.90;;;;;;5066214;28;20044;-84
2022/11/07 04:04:13;;;;;;;9.82;2.25;;;13.00;99.90;;;;;;5066643;28;20048;-84
2022/11/07 04:06:43;;;;;;;7.63;2.03;;;13.10;99.90;;;;;;5064609;28;20044;-84
2022/11/07 04:09:10;;;;;;;6.82;2.03;;;13.20;99.90;;;;;;5066096;28;20054;-84
2022/11/07 04:17:18;;;;;;;7.30;2.35;;;13.00;99.90;;;;;;5066651;28;20052;-84
2022/11/07 04:19:45;;;;;;;5.28;1.80;;;13.00;99.90;;;;;;5064341;28;20106;-85
2022/11/07 04:22:14;;;;;;;6.70;2.17;;;13.00;99.90;;;;;;5065066;28;20032;-84
2022/11/07 04:24:41;;;;;;;6.82;2.25;;;12.90;99.90;;;;;;5065273;28;20123;-85
2022/11/07 04:29:54;;;;;;;9.25;2.00;;;12.90;99.90;;;;;;5066085;28;20079;-84
2022/11/07 04:32:22;;;;;;;6.55;2.00;;;12.90;99.90;;;;;;5065942;28;20696;-84
2022/11/07 04:34:49;;;;;;;9.50;2.15;;;12.90;99.90;;;;;;5046947;28;20412;-84
2022/11/07 04:37:17;;;;;;;6.35;1.80;;;12.90;99.90;;;;;;5065584;28;20054;-84
2022/11/07 04:39:44;;;;;;;11.82;2.20;;;13.00;99.90;;;;;;5066013;28;20051;-84
2022/11/07 04:42:11;;;;;;;9.23;2.25;;;12.90;99.90;;;;;;5064726;28;20041;-85
2022/11/07 04:44:38;;;;;;;5.55;2.20;;;12.90;99.90;;;;;;5064915;28;20055;-84
2022/11/07 04:47:05;;;;;;;9.02;2.20;;;12.90;99.90;;;;;;5065266;28;20041;-84
2022/11/07 04:49:32;;;;;;;8.07;2.13;;;12.90;99.90;;;;;;5064813;28;20047;-84
2022/11/07 04:52:01;;;;;;;7.57;2.20;;;12.90;99.90;;;;;;5044491;28;20043;-85
2022/11/07 04:54:29;;;;;;;13.95;2.58;;;12.90;99.90;;;;;;5060998;28;20550;-84
2022/11/07 04:56:59;;;;;;;7.15;2.35;;;12.90;99.90;;;;;;5048713;28;20049;-84
2022/11/07 04:59:26;;;;;;;9.00;2.30;;;12.90;99.90;;;;;;5047154;28;20053;-84
2022/11/07 05:01:52;;;;;;;11.25;2.10;;;12.90;99.90;;;;;;5065338;28;20166;-84
2022/11/07 05:04:21;;;;;;;6.90;2.08;;;12.90;99.90;;;;;;5065288;28;20051;-84
2022/11/07 05:06:48;;;;;;;8.20;2.75;;;12.90;99.90;;;;;;5058463;28;20440;-84
2022/11/07 05:09:16;;;;;;;9.25;2.28;;;12.90;99.90;;;;;;5064799;28;20048;-85
2022/11/07 05:11:45;;;;;;;8.55;1.95;;;12.90;99.90;;;;;;5064451;28;20044;-84
2022/11/07 05:14:12;;;;;;;6.35;1.83;;;12.90;99.90;;;;;;5064445;28;20048;-84
2022/11/07 05:16:39;;;;;;;9.85;1.95;;;12.90;99.90;;;;;;5064898;28;20051;-84
2022/11/07 05:19:06;;;;;;;7.95;2.00;;;12.90;99.90;;;;;;5064585;28;20041;-84
2022/11/07 05:21:35;;;;;;;8.77;2.08;;;12.90;99.90;;;;;;5065414;28;20492;-84
2022/11/07 05:24:01;;;;;;;10.30;2.78;;;12.90;99.90;;;;;;5046191;28;20119;-84
2022/11/07 05:26:28;;;;;;;10.68;2.95;;;12.90;99.90;;;;;;5064985;28;20044;-84
2022/11/07 05:28:59;;;;;;;9.48;2.58;;;12.90;99.90;;;;;;5065663;28;20485;-84
2022/11/07 05:31:27;;;;;;;8.77;1.83;;;12.90;99.90;;;;;;5064790;28;20101;-85
2022/11/07 05:33:54;;;;;;;7.20;1.70;;;12.90;99.90;;;;;;5065375;28;20055;-84
2022/11/07 05:36:24;;;;;;;6.93;2.20;;;12.90;99.90;;;;;;5062738;28;20052;-85
2022/11/07 05:38:53;;;;;;;8.35;2.08;;;12.90;99.90;;;;;;5064341;28;20513;-84
2022/11/07 05:41:21;;;;;;;8.45;2.03;;;12.90;99.90;;;;;;5064480;28;20135;-84
2022/11/07 05:43:48;;;;;;;9.75;2.20;;;12.90;99.90;;;;;;5064353;28;20055;-85
2022/11/07 05:46:16;;;;;;;7.90;1.75;;;12.90;99.90;;;;;;5062975;28;20052;-84
2022/11/07 05:48:43;;;;;;;9.18;2.22;;;12.80;99.90;;;;;;5063533;28;20043;-85
2022/11/07 05:51:10;;;;;;;8.48;2.00;;;12.90;99.90;;;;;;5064691;28;20051;-84
2022/11/07 05:53:37;;;;;;;8.10;1.98;;;12.90;99.90;;;;;;5064689;28;20047;-84
2022/11/07 05:56:04;;;;;;;6.65;2.25;;;12.90;99.90;;;;;;5063529;28;20044;-86
2022/11/07 05:58:31;;;;;;;7.50;2.25;;;12.90;99.90;;;;;;5063655;28;20140;-83
2022/11/07 06:01:01;;;;;;;8.77;2.08;;;12.90;99.90;;;;;;5063481;28;20109;-85
2022/11/07 06:03:29;;;;;;;10.45;2.80;;;12.90;99.90;;;;;;5065929;28;20049;-87
2022/11/07 06:05:56;;;;;;;13.90;2.17;;;12.90;99.90;;;;;;5062780;28;20119;-86
2022/11/07 06:08:23;;;;;;;10.18;2.30;;;12.90;99.90;;;;;;5064570;28;20513;-91
2022/11/07 06:10:53;;;;;;;11.68;2.25;;;12.90;99.90;;;;;;5057304;28;20051;-91
2022/11/07 06:13:19;;;;;;;7.20;2.08;;;12.90;99.90;;;;;;5064825;28;20052;-91
2022/11/07 06:15:46;;;;;;;10.23;2.20;;;12.90;99.90;;;;;;5046016;28;20505;-92
2022/11/07 06:18:15;;;;;;;12.35;2.25;;;12.90;99.90;;;;;;5064092;28;20040;-91
2022/11/07 06:20:44;;;;;;;10.20;2.30;;;12.90;99.90;;;;;;5046184;28;20082;-89
2022/11/07 06:23:11;;;;;;;8.13;2.10;;;12.90;99.90;;;;;;5064427;28;20044;-92
2022/11/07 06:25:38;;;;;;;10.48;2.33;;;13.00;99.90;;;;;;5062983;28;20049;-90
2022/11/07 06:28:07;;;;;;;11.52;2.65;;;13.00;99.90;;;;;;5062773;28;20128;-91
2022/11/07 06:30:41;;;;;;;8.45;2.10;;;12.90;99.90;;;;;;5060825;28;20119;-89
2022/11/07 06:33:12;;;;;;;12.02;2.38;;;13.00;99.90;;;;;;5063415;28;20050;-89
2022/11/07 06:35:39;;;;;;;9.23;2.35;;;13.00;99.90;;;;;;5061455;28;20045;-90
2022/11/07 06:38:10;;;;;;;15.57;2.70;;;13.00;99.90;;;;;;5064675;28;20404;-90
2022/11/07 06:40:37;;;;;;;10.57;2.53;;;13.00;99.90;;;;;;5050809;28;20156;-87
2022/11/07 06:43:10;;;;;;;11.07;2.20;;;13.00;99.90;;;;;;5064524;28;20068;-88
2022/11/07 06:45:39;;;;;;;10.75;2.20;;;13.00;99.90;;;;;;5059785;28;20048;-85
2022/11/07 06:48:06;;;;;;;9.32;2.22;;;13.10;99.90;;;;;;5065661;28;20051;-86
2022/11/07 06:50:34;;;;;;;10.18;2.33;;;13.10;99.90;;;;;;5065551;28;20050;-88
2022/11/07 06:53:02;;;;;;;10.02;2.15;;;13.10;99.90;;;;;;5066866;28;20098;-88
2022/11/07 06:55:30;;;;;;;9.23;2.22;;;13.10;99.90;;;;;;5063943;28;20041;-87
2022/11/07 06:57:59;;;;;;;9.63;2.50;;;13.10;99.90;;;;;;5066192;28;20551;-88
2022/11/07 07:00:26;;;;;;;14.05;2.67;;;13.10;99.90;;;;;;5065598;28;20378;-88
2022/11/07 07:02:53;;;;;;;14.50;3.08;;;13.10;99.90;;;;;;5067210;28;20526;-87
2022/11/07 07:05:20;;;;;;;8.38;2.05;;;13.10;99.90;;;;;;5065789;28;20048;-87
2022/11/07 07:07:47;;;;;;;14.23;2.67;;;13.30;99.90;;;;;;5048880;28;20040;-88
2022/11/07 07:10:14;;;;;;;11.57;2.10;;;13.30;99.90;;;;;;5066537;28;20058;-87
2022/11/07 07:12:43;;;;;;;10.65;2.20;;;13.20;99.90;;;;;;5067621;28;20496;-87
2022/11/07 07:15:10;;;;;;;11.80;2.42;;;13.20;99.90;;;;;;5067334;28;20044;-88
2022/11/07 07:17:37;;;;;;;12.63;2.40;;;13.20;99.90;;;;;;5062597;28;20044;-88
2022/11/07 07:20:05;;;;;;;12.27;2.03;;;13.30;99.90;;;;;;5067512;28;20036;-87
2022/11/07 07:22:32;;;;;;;9.82;2.20;;;13.30;99.90;;;;;;5062213;28;20044;-88
2022/11/07 07:24:59;;;;;;;11.07;2.47;;;13.30;99.90;;;;;;5070648;28;20109;-88
2022/11/07 07:27:26;;;;;;;9.65;2.13;;;13.30;99.90;;;;;;5069198;28;20113;-88
2022/11/07 07:29:54;;;;;;;10.68;2.45;;;13.40;99.90;;;;;;5066003;28;20041;-87
2022/11/07 07:32:24;;;;;;;8.65;2.13;;;13.40;99.90;;;;;;5049461;28;20048;-87
2022/11/07 07:34:51;;;;;;;9.07;2.10;;;13.40;99.90;;;;;;5065911;28;20036;-86
2022/11/07 07:37:18;;;;;;;8.07;2.03;;;13.50;99.90;;;;;;5068584;28;20043;-88
2022/11/07 07:39:45;;;;;;;9.82;2.42;;;13.30;99.90;;;;;;5066272;28;20036;-88
2022/11/07 07:42:11;;;;;;;11.52;2.83;;;13.40;99.90;;;;;;5060981;28;20056;-85
2022/11/07 07:44:38;;;;;;;5.97;1.80;;;13.40;99.90;;;;;;5061434;28;20056;-85
2022/11/07 07:47:07;;;;;;;23.90;3.35;;;13.40;99.90;;;;;;5060855;28;20499;-85
2022/11/07 07:49:34;;;;;;;11.20;2.03;;;13.50;99.90;;;;;;5062514;28;20047;-85
2022/11/07 07:52:01;;;;;;;13.60;2.20;;;13.50;99.90;;;;;;5049431;28;20472;-85
2022/11/07 07:54:28;;;;;;;10.55;1.90;;;13.50;99.90;;;;;;5064058;28;20196;-85
2022/11/07 07:56:54;;;;;;;10.55;2.22;;;13.60;99.90;;;;;;5067172;28;20077;-85
2022/11/07 07:59:21;;;;;;;8.88;2.33;;;13.60;99.90;;;;;;5069763;28;20040;-85
2022/11/07 08:01:48;;;;;;;11.45;2.15;;;13.60;99.90;;;;;;5065586;28;20047;-85
2022/11/07 08:04:17;;;;;;;9.13;1.92;;;13.60;99.90;;;;;;5068216;28;20036;-85
2022/11/07 08:06:43;;;;;;;10.98;3.28;;;13.60;99.90;;;;;;5069337;28;20043;-88
2022/11/07 08:09:11;;;;;;;13.05;2.92;;;13.80;99.90;;;;;;5069924;28;20036;-85
2022/11/07 08:11:38;;;;;;;8.95;2.03;;;13.70;99.90;;;;;;5064429;28;20450;-85
2022/11/07 08:14:05;;;;;;;13.98;2.92;;;13.70;99.90;;;;;;5057336;28;20044;-85
2022/11/07 08:16:34;;;;;;;13.57;2.22;;;13.70;99.90;;;;;;5061715;28;20105;-85
2022/11/07 08:19:01;;;;;;;11.55;2.58;;;13.70;99.90;;;;;;5068296;28;20044;-85
2022/11/07 08:21:29;;;;;;;10.00;2.28;;;13.80;99.90;;;;;;5067200;28;20052;-85
2022/11/07 08:23:56;;;;;;;12.68;2.47;;;13.80;99.90;;;;;;5070328;28;20051;-85
2022/11/07 08:26:24;;;;;;;12.55;2.45;;;13.80;99.90;;;;;;5069360;28;20497;-84
2022/11/07 08:28:53;;;;;;;9.82;2.22;;;13.80;99.90;;;;;;5070778;28;20056;-85
2022/11/07 08:31:20;;;;;;;10.38;2.30;;;13.80;99.90;;;;;;5050466;28;20140;-85
2022/11/07 08:33:47;;;;;;;11.45;2.55;;;13.90;99.90;;;;;;5067919;28;20049;-85
2022/11/07 08:36:14;;;;;;;6.18;1.98;;;13.80;99.90;;;;;;5068350;28;20151;-85
2022/11/07 08:38:43;;;;;;;11.02;3.00;;;13.80;99.90;;;;;;5066438;28;20115;-85
2022/11/07 08:41:10;;;;;;;9.57;2.15;;;13.80;99.90;;;;;;5050547;28;20493;-85
2022/11/07 08:43:37;;;;;;;12.32;2.42;;;13.90;99.90;;;;;;5067592;28;20040;-85
2022/11/07 08:46:03;;;;;;;12.57;2.78;;;13.90;99.90;;;;;;5062239;28;20036;-85
2022/11/07 08:48:30;;;;;;;9.57;2.28;;;13.90;99.90;;;;;;5065390;28;20127;-85
2022/11/07 08:51:01;;;;;;;15.80;3.05;;;13.90;99.90;;;;;;5069820;22;20048;-82
2022/11/07 08:53:29;;;;;;;12.32;3.20;;;14.00;99.90;;;;;;5043802;28;20716;-81
2022/11/07 08:56:02;;;;;;;10.30;2.38;;;14.00;99.90;;;;;;5045207;28;20045;-81
2022/11/07 08:58:30;;;;;;;10.48;2.53;;;14.00;99.90;;;;;;5045446;28;20045;-81
2022/11/07 09:00:57;;;;;;;14.02;2.97;;;14.00;99.90;;;;;;5048317;28;20052;-82
2022/11/07 09:03:24;;;;;;;14.60;2.55;;;14.00;99.90;;;;;;5048593;28;20080;-82
2022/11/07 09:05:53;;;;;;;7.75;2.05;;;14.00;99.90;;;;;;5045806;28;20700;-81
2022/11/07 09:08:23;;;;;;;11.57;2.30;;;14.00;99.90;;;;;;5044949;28;20053;-81
2022/11/07 09:10:52;;;;;;;11.93;2.55;;;14.00;99.90;;;;;;5049541;28;20041;-82
2022/11/07 09:13:21;;;;;;;15.07;2.40;;;14.00;99.90;;;;;;5044161;28;20052;-81
2022/11/07 09:15:48;;;;;;;11.88;2.35;;;14.00;99.90;;;;;;5041054;28;20037;-81
2022/11/07 09:18:17;;;;;;;11.35;2.67;;;14.10;99.90;;;;;;5042683;28;20071;-82
2022/11/07 09:20:44;;;;;;;12.38;3.20;;;14.10;99.90;;;;;;5046875;28;20124;-82
2022/11/07 09:23:11;;;;;;;10.35;2.45;;;14.10;99.90;;;;;;5045313;28;20223;-84
2022/11/07 09:25:38;;;;;;;10.05;2.95;;;14.10;99.90;;;;;;5039151;28;20040;-86
2022/11/07 09:28:05;;;;;;;8.45;2.00;;;14.10;99.90;;;;;;5040600;28;20043;-87
2022/11/07 09:30:33;;;;;;;12.85;2.65;;;14.10;99.90;;;;;;5036071;28;20498;-85
2022/11/07 09:33:00;;;;;;;14.63;2.38;;;14.20;99.90;;;;;;5040313;28;20113;-85
2022/11/07 09:35:28;;;;;;;10.00;2.15;;;14.20;99.90;;;;;;5043484;28;20079;-83
2022/11/07 09:37:54;;;;;;;8.98;2.13;;;14.30;99.90;;;;;;5039517;28;20120;-83
2022/11/07 09:40:24;;;;;;;19.13;3.03;;;14.30;99.90;;;;;;5047438;28;20115;-84
2022/11/07 09:43:01;;;;;;;11.20;1.98;;;14.30;99.90;;;;;;5042528;28;20045;-84
2022/11/07 09:45:41;;;;;;;10.30;2.28;;;14.30;99.90;;;;;;5041922;28;20072;-83
2022/11/07 09:48:15;;;;;;;20.87;3.00;;;14.40;99.90;;;;;;5048012;28;20049;-82
2022/11/07 09:50:43;;;;;;;10.05;2.45;;;14.50;99.90;;;;;;5047560;28;20041;-83
2022/11/07 09:53:14;;;;;;;10.85;2.63;;;14.40;99.90;;;;;;5045539;28;20044;-82
2022/11/07 09:55:45;;;;;;;10.68;2.30;;;14.50;99.90;;;;;;5048312;28;20124;-82
2022/11/07 09:58:12;;;;;;;;;;;14.50;99.90;;;;;;5047413;28;20072;-82
2022/11/07 10:00:41;;;;;;;10.15;2.67;;;14.50;99.90;;;;;;5045633;28;19925;-82
2022/11/07 10:03:09;;;;;;;12.07;2.63;;;14.50;99.90;;;;;;5044558;28;20045;-82
2022/11/07 10:05:44;;;;;;;9.65;2.78;;;14.50;99.90;;;;;;5046989;28;20049;-82
2022/11/07 10:08:14;;;;;;;11.20;2.28;;;14.60;99.90;;;;;;5048766;28;20036;-82
2022/11/07 10:10:44;;;;;;;11.60;2.50;;;14.50;99.90;;;;;;5048344;28;20116;-82
2022/11/07 10:13:35;;;;;;;7.10;2.08;;;14.60;99.90;;;;;;5048636;28;20049;-82
2022/11/07 10:16:09;;;;;;;14.13;2.67;;;14.40;99.90;;;;;;5038620;28;20421;-82
2022/11/07 10:18:48;;;;;;;13.60;2.63;;;14.40;99.90;;;;;;5039108;28;20157;-82
2022/11/07 10:21:22;;;;;;;10.30;2.25;;;14.50;99.90;;;;;;5025558;28;20055;-82
2022/11/07 10:23:57;;;;;;;14.32;2.35;;;14.50;99.90;;;;;;5028010;28;20040;-82
2022/11/07 10:26:26;;;;;;;12.02;2.33;;;14.50;99.90;;;;;;5029201;28;20075;-80
2022/11/07 10:28:57;;;;;;;15.50;2.63;;;14.50;99.90;;;;;;5039863;28;20040;-83
2022/11/07 10:31:31;;;;;;;10.90;2.30;;;14.50;99.90;;;;;;5038858;28;20871;-83
2022/11/07 10:34:02;;;;;;;11.98;2.40;;;14.50;99.90;;;;;;5042809;28;20219;-82
2022/11/07 10:36:30;;;;;;;9.88;3.15;;;14.40;99.90;;;;;;5042380;28;20051;-81
2022/11/07 10:38:57;;;;;;;10.15;3.10;;;14.40;99.90;;;;;;5042021;28;20117;-84
2022/11/07 10:41:26;;;;;;;18.67;5.22;;;14.40;99.90;;;;;;5039512;28;20045;-84
2022/11/07 10:43:56;;;;;;;13.43;2.90;;;14.40;99.90;;;;;;5043914;28;21798;-84
2022/11/07 10:46:31;;;;;;;12.35;2.65;;;14.30;99.90;;;;;;5049195;28;20072;-85
2022/11/07 10:49:00;;;;;;;11.45;2.97;;;14.30;99.90;;;;;;5047570;28;20091;-85
2022/11/07 10:51:37;;;;;;;14.48;3.05;;;14.40;99.90;;;;;;5043875;28;20056;-87
2022/11/07 10:54:04;;;;;;;11.73;3.20;;;14.40;99.90;;;;;;5043553;28;20049;-85
2022/11/07 10:56:31;;;;;;;12.88;2.72;;;14.40;99.90;;;;;;5041575;28;20060;-86
2022/11/07 10:59:01;;;;;;;12.93;3.00;;;14.40;99.90;;;;;;5043245;28;20048;-81
2022/11/07 11:01:30;;;;;;;11.10;3.30;;;14.40;99.90;;;;;;5045982;28;20040;-84
2022/11/07 11:03:57;;;;;;;9.82;3.00;;;14.50;99.90;;;;;;5052330;28;20114;-85
2022/11/07 11:06:30;;;;;;;13.98;3.05;;;14.50;99.90;;;;;;5039536;28;20077;-85
2022/11/07 11:08:57;;;;;;;9.57;3.33;;;14.50;99.90;;;;;;5041421;28;20052;-86
2022/11/07 11:11:31;;;;;;;10.95;2.85;;;14.50;99.90;;;;;;5049268;28;20051;-82
2022/11/07 11:14:02;;;;;;;10.48;3.15;;;14.50;99.90;;;;;;5045163;28;20064;-84
2022/11/07 11:16:35;;;;;;;12.00;2.85;;;14.50;99.90;;;;;;5039894;28;20045;-80
2022/11/07 11:19:02;;;;;;;12.32;2.75;;;14.50;99.90;;;;;;5054687;28;20043;-82
2022/11/07 11:21:40;;;;;;;13.40;3.45;;;14.50;99.90;;;;;;5044849;28;20516;-90
2022/11/07 11:24:26;;;;;;;10.23;2.40;;;14.50;99.90;;;;;;5044428;28;20562;-84
2022/11/07 11:26:54;;;;;;;11.23;2.80;;;14.50;99.90;;;;;;5043938;28;20044;-84
2022/11/07 11:29:29;;;;;;;19.55;2.75;;;14.60;99.90;;;;;;5042984;28;20041;-85
2022/11/07 11:31:58;;;;;;;13.32;3.15;;;14.60;99.90;;;;;;5041687;28;20037;-84
2022/11/07 11:34:32;;;;;;;8.88;2.30;;;14.60;99.90;;;;;;5036167;28;20141;-84
2022/11/07 11:37:04;;;;;;;15.63;3.53;;;14.70;99.90;;;;;;5049049;28;20835;-84
2022/11/07 11:39:35;;;;;;;16.60;3.17;;;14.70;99.90;;;;;;5046963;28;20048;-84
2022/11/07 11:42:03;;;;;;;12.45;2.33;;;14.70;99.90;;;;;;5041221;28;20049;-84
2022/11/07 11:44:33;;;;;;;10.55;2.90;;;14.70;99.90;;;;;;5046002;28;20048;-88
2022/11/07 11:47:10;;;;;;;12.63;2.78;;;14.70;99.90;;;;;;5043699;28;20519;-88
2022/11/07 11:49:40;;;;;;;14.45;2.90;;;14.80;99.90;;;;;;5045186;28;20040;-90
2022/11/07 11:52:11;;;;;;;13.32;2.53;;;14.80;99.90;;;;;;5028708;28;20067;-89
2022/11/07 11:54:38;;;;;;;13.63;2.72;;;14.80;99.90;;;;;;5028097;28;20049;-89
2022/11/07 11:57:09;;;;;;;10.98;2.83;;;14.80;99.90;;;;;;5024822;28;20132;-90
2022/11/07 12:00:05;;;;;;;13.18;2.60;;;14.90;99.90;;;;;;5038975;28;20051;-89
2022/11/07 12:03:09;;;;;;;11.40;2.90;;;14.80;99.90;;;;;;5043828;28;20037;-91
2022/11/07 12:06:05;;;;;;;14.52;2.70;;;14.90;99.90;;;;;;5041382;28;20041;-89
2022/11/07 12:08:49;;;;;;;13.48;2.58;;;14.90;99.90;;;;;;5036712;28;20052;-90
2022/11/07 12:11:23;;;;;;;10.35;2.58;;;15.00;99.90;;;;;;5040328;28;20029;-90
2022/11/07 12:13:58;;;;;;;14.88;2.55;;;15.00;99.90;;;;;;5026187;28;20055;-90
2022/11/07 12:16:31;;;;;;;17.73;3.38;;;15.00;99.90;;;;;;5041586;28;20051;-90
2022/11/07 12:19:06;;;;;;;13.77;2.50;;;15.00;99.90;;;;;;5040146;28;20136;-89
2022/11/07 12:21:39;;;;;;;10.98;2.60;;;15.00;99.90;;;;;;5027339;28;20076;-90
2022/11/07 12:24:21;;;;;;;13.70;2.70;;;15.00;99.90;;;;;;5040132;28;20040;-90
2022/11/07 12:26:53;;;;;;;13.98;2.90;;;15.00;99.90;;;;;;5040665;28;20069;-89
2022/11/07 12:29:22;;;;;;;;;;;15.10;99.90;;;;;;5040223;28;20073;-88
2022/11/07 12:31:58;;;;;;;14.50;3.13;;;15.10;99.90;;;;;;5028497;28;19967;-90
2022/11/07 12:34:37;;;;;;;14.30;3.25;;;15.10;99.90;;;;;;5018335;28;20402;-89
2022/11/07 12:37:38;;;;;;;11.20;2.53;;;15.10;99.90;;;;;;5041639;28;20043;-90
2022/11/07 12:40:22;;;;;;;9.95;2.35;;;15.10;99.90;;;;;;5040955;28;20056;-89
2022/11/07 12:42:56;;;;;;;13.48;2.65;;;15.10;99.90;;;;;;5041353;28;20072;-90
2022/11/07 12:45:39;;;;;;;12.35;2.38;;;15.10;99.90;;;;;;5044061;28;20049;-89
2022/11/07 12:48:29;;;;;;;16.08;2.65;;;15.20;99.90;;;;;;5042506;28;20044;-90
2022/11/07 12:51:02;;;;;;;11.23;2.30;;;15.20;99.90;;;;;;5046939;28;20485;-91
2022/11/07 12:53:34;;;;;;;12.43;2.50;;;15.20;99.90;;;;;;5044934;28;20041;-90
2022/11/07 12:56:07;;;;;;;14.32;2.60;;;15.20;99.90;;;;;;5047407;28;20033;-90
2022/11/07 12:58:36;;;;;;;12.52;3.20;;;15.20;99.90;;;;;;5039861;28;20170;-90
2022/11/07 13:01:03;;;;;;;9.70;2.47;;;15.20;99.90;;;;;;5049129;28;20041;-90
2022/11/07 13:03:45;;;;;;;8.65;2.40;;;15.20;99.90;;;;;;5042941;28;20036;-90
2022/11/07 13:06:21;;;;;;;11.23;2.10;;;15.20;99.90;;;;;;5027947;28;20051;-91